createdAt,value
2023-03-27T00:02:23.913Z,10.52
2023-03-27T00:07:26.716Z,13.85
2023-03-27T00:12:32.265Z,17.52
2023-03-27T00:17:35.389Z,13.20
2023-03-27T00:22:42.461Z,16.75
2023-03-27T00:27:50.480Z,10.90
2023-03-27T00:32:57.025Z,9.63
2023-03-27T00:38:00.039Z,10.30
2023-03-27T00:43:03.092Z,12.90
2023-03-27T00:48:08.142Z,12.45
2023-03-27T00:53:14.761Z,10.50
2023-03-27T00:58:24.270Z,15.00
2023-03-27T01:03:35.365Z,12.52
2023-03-27T01:08:43.700Z,10.57
2023-03-27T01:14:15.374Z,13.63
2023-03-27T01:19:42.176Z,11.90
2023-03-27T01:25:16.202Z,6.55
2023-03-27T01:30:29.287Z,10.05
2023-03-27T01:36:04.589Z,7.82
2023-03-27T01:41:34.960Z,5.95
2023-03-27T01:46:37.921Z,7.35
2023-03-27T01:51:45.202Z,5.38
2023-03-27T01:56:53.986Z,6.25
2023-03-27T02:02:05.169Z,4.93
2023-03-27T02:07:13.106Z,5.88
2023-03-27T02:12:24.882Z,5.93
2023-03-27T02:17:28.831Z,5.15
2023-03-27T02:22:37.937Z,5.22
2023-03-27T02:27:49.904Z,4.45
2023-03-27T02:32:54.060Z,7.88
2023-03-27T02:38:24.016Z,2.95
2023-03-27T02:43:38.066Z,4.30
2023-03-27T02:48:52.233Z,5.60
2023-03-27T02:53:58.570Z,3.78
2023-03-27T02:59:13.358Z,4.40
2023-03-27T03:04:22.529Z,3.38
2023-03-27T03:09:44.614Z,6.25
2023-03-27T03:14:47.856Z,4.40
2023-03-27T03:19:50.556Z,5.65
2023-03-27T03:24:53.751Z,4.57
2023-03-27T03:30:01.675Z,3.53
2023-03-27T03:35:06.851Z,5.93
2023-03-27T03:40:14.127Z,5.13
2023-03-27T03:45:22.811Z,3.97
2023-03-27T03:50:25.653Z,6.20
2023-03-27T03:55:28.472Z,3.10
2023-03-27T04:00:38.439Z,2.13
2023-03-27T04:05:45.787Z,4.07
2023-03-27T04:10:48.944Z,4.30
2023-03-27T04:16:14.190Z,8.88
2023-03-27T04:21:21.301Z,6.60
2023-03-27T04:31:48.937Z,4.00
2023-03-27T04:37:23.582Z,6.30
2023-03-27T04:42:45.987Z,2.63
2023-03-27T04:47:49.373Z,3.45
2023-03-27T04:52:58.822Z,9.90
2023-03-27T04:58:05.808Z,3.47
2023-03-27T05:03:10.910Z,3.83
2023-03-27T05:08:32.044Z,3.70
2023-03-27T05:13:35.217Z,9.80
2023-03-27T05:18:38.694Z,3.80
2023-03-27T05:23:44.698Z,10.00
2023-03-27T05:28:47.526Z,5.60
2023-03-27T05:33:52.892Z,5.57
2023-03-27T05:38:58.193Z,2.08
2023-03-27T05:44:12.510Z,5.50
2023-03-27T05:49:22.010Z,3.40
2023-03-27T05:54:30.864Z,4.35
2023-03-27T05:59:39.928Z,3.10
2023-03-27T06:05:18.840Z,3.15
2023-03-27T06:16:44.399Z,2.88
2023-03-27T06:22:16.239Z,2.60
2023-03-27T06:27:38.446Z,3.22
2023-03-27T06:32:51.289Z,4.32
2023-03-27T06:38:36.291Z,7.47
2023-03-27T06:44:02.201Z,6.28
2023-03-27T06:49:51.942Z,5.53
2023-03-27T06:55:14.819Z,5.32
2023-03-27T07:00:40.254Z,2.42
2023-03-27T07:06:01.817Z,2.22
2023-03-27T07:11:31.710Z,3.85
2023-03-27T07:35:42.571Z,3.83
2023-03-27T07:41:42.931Z,4.13
2023-03-27T07:48:04.489Z,4.13
2023-03-27T08:08:05.223Z,7.00
2023-03-27T08:20:28.445Z,3.58
2023-03-27T08:25:55.510Z,4.38
2023-03-27T08:31:12.676Z,4.60
2023-03-27T08:36:16.458Z,3.20
2023-03-27T08:41:30.061Z,5.45
2023-03-27T08:47:14.105Z,10.85
2023-03-27T08:52:36.532Z,7.63
2023-03-27T08:57:44.294Z,6.05
2023-03-27T09:03:36.171Z,9.73
2023-03-27T09:08:50.128Z,3.30
2023-03-27T09:13:56.600Z,6.18
2023-03-27T09:19:15.321Z,5.38
2023-03-27T09:24:31.817Z,4.63
2023-03-27T09:30:26.415Z,10.30
2023-03-27T09:35:35.860Z,6.05
2023-03-27T09:40:48.848Z,9.88
2023-03-27T09:45:56.351Z,6.78
2023-03-27T09:51:02.728Z,5.97
2023-03-27T10:01:30.650Z,4.53
2023-03-27T10:07:02.787Z,6.85
2023-03-27T10:12:27.518Z,5.15
2023-03-27T10:17:38.940Z,6.32
2023-03-27T10:22:54.997Z,2.75
2023-03-27T10:28:16.142Z,4.18
2023-03-27T10:33:43.782Z,6.43
2023-03-27T10:39:00.884Z,12.35
2023-03-27T10:44:26.241Z,2.97
2023-03-27T10:49:51.947Z,3.55
2023-03-27T10:55:20.256Z,10.70
2023-03-27T11:00:33.046Z,4.65
2023-03-27T11:05:49.308Z,13.45
2023-03-27T11:11:17.055Z,6.47
2023-03-27T11:16:32.240Z,8.30
2023-03-27T11:22:01.895Z,24.00
2023-03-27T11:27:56.155Z,9.85
2023-03-27T11:33:24.507Z,5.80
2023-03-27T11:38:37.560Z,6.20
2023-03-27T11:43:42.068Z,111.47
2023-03-27T11:49:21.706Z,63.58
2023-03-27T11:54:37.607Z,28.83
2023-03-27T11:59:54.326Z,48.55
2023-03-27T12:05:38.560Z,8.15
2023-03-27T12:10:43.707Z,8.48
2023-03-27T12:16:31.359Z,16.10
2023-03-27T12:21:46.815Z,14.65
2023-03-27T12:26:59.832Z,22.83
2023-03-27T12:32:40.269Z,11.23
2023-03-27T12:37:57.854Z,11.55
2023-03-27T12:43:06.275Z,8.13
2023-03-27T12:48:10.186Z,20.33
2023-03-27T12:53:25.765Z,13.45
2023-03-27T12:58:34.713Z,9.23
2023-03-27T13:04:33.473Z,7.03
2023-03-27T13:09:47.170Z,5.82
2023-03-27T13:15:15.722Z,24.50
2023-03-27T13:20:55.956Z,26.17
2023-03-27T13:26:25.048Z,18.10
2023-03-27T13:31:57.838Z,6.75
2023-03-27T13:37:36.732Z,12.23
2023-03-27T13:42:44.833Z,7.67
2023-03-27T13:47:51.586Z,9.25
2023-03-27T13:53:13.579Z,25.30
2023-03-27T13:59:09.958Z,10.48
2023-03-27T14:04:14.003Z,32.72
2023-03-27T14:09:38.724Z,12.18
2023-03-27T14:15:09.944Z,9.57
2023-03-27T14:20:23.367Z,9.93
2023-03-27T14:25:34.390Z,8.27
2023-03-27T14:30:56.685Z,22.77
2023-03-27T14:36:17.236Z,19.55
2023-03-27T14:41:26.378Z,9.73
2023-03-27T14:52:22.222Z,13.52
2023-03-27T14:57:44.929Z,10.48
2023-03-27T15:02:49.692Z,13.48
2023-03-27T15:07:54.927Z,28.63
2023-03-27T15:13:17.737Z,8.88
2023-03-27T15:18:33.344Z,6.88
2023-03-27T15:23:41.504Z,3.65
2023-03-27T15:28:53.717Z,13.52
2023-03-27T15:34:03.742Z,9.07
2023-03-27T15:39:10.182Z,11.60
2023-03-27T15:44:17.382Z,12.77
2023-03-27T15:49:21.689Z,5.07
2023-03-27T15:54:35.804Z,5.03
2023-03-27T15:59:52.870Z,4.82
2023-03-27T16:04:57.919Z,4.38
2023-03-27T16:10:03.086Z,10.80
2023-03-27T16:15:08.626Z,7.97
2023-03-27T16:20:12.862Z,13.63
2023-03-27T16:25:16.408Z,8.95
2023-03-27T16:30:41.468Z,12.43
2023-03-27T16:35:44.523Z,17.83
2023-03-27T16:40:47.202Z,6.15
2023-03-27T16:45:52.395Z,28.80
2023-03-27T16:50:54.929Z,12.95
2023-03-27T16:55:58.018Z,20.08
2023-03-27T17:01:00.821Z,27.63
2023-03-27T17:06:06.129Z,33.43
2023-03-27T17:11:13.183Z,49.78
2023-03-27T17:16:17.240Z,33.47
2023-03-27T17:21:20.037Z,42.77
2023-03-27T17:26:23.784Z,37.35
2023-03-27T17:31:30.875Z,66.90
2023-03-27T17:36:43.269Z,69.15
2023-03-27T17:41:51.123Z,96.95
2023-03-27T17:51:56.468Z,538.20
2023-03-27T17:56:59.326Z,378.30
2023-03-27T18:02:02.511Z,349.13
2023-03-27T18:07:05.502Z,360.13
2023-03-27T18:12:14.581Z,196.10
2023-03-27T18:17:21.542Z,1020.13
2023-03-27T18:22:27.764Z,442.88
2023-03-27T18:27:30.775Z,335.25
2023-03-27T18:32:33.394Z,164.43
2023-03-27T18:37:37.180Z,95.70
2023-03-27T18:47:47.188Z,375.57
2023-03-27T18:52:50.634Z,340.25
2023-03-27T18:57:53.444Z,396.13
2023-03-27T19:02:57.177Z,308.35
2023-03-27T19:08:03.140Z,182.15
2023-03-27T19:13:06.197Z,120.07
2023-03-27T19:18:30.467Z,103.43
2023-03-27T19:23:49.366Z,75.45
2023-03-27T19:28:56.251Z,71.88
2023-03-27T19:34:02.353Z,36.13
2023-03-27T19:39:09.635Z,32.15
2023-03-27T19:44:20.185Z,33.40
2023-03-27T19:49:23.295Z,31.55
2023-03-27T19:54:35.061Z,73.50
2023-03-27T19:59:37.572Z,24.23
2023-03-27T20:04:40.268Z,25.45
2023-03-27T20:09:42.697Z,31.50
2023-03-27T20:14:51.341Z,23.95
2023-03-27T20:20:06.446Z,18.90
2023-03-27T20:25:09.161Z,16.13
2023-03-27T20:30:14.902Z,16.15
2023-03-27T20:35:24.413Z,17.60
2023-03-27T20:40:27.602Z,18.90
2023-03-27T20:45:31.371Z,18.77
2023-03-27T20:50:35.924Z,16.33
2023-03-27T20:55:49.595Z,13.43
2023-03-27T21:01:05.231Z,11.45
2023-03-27T21:06:09.964Z,14.65
2023-03-27T21:11:15.435Z,8.55
2023-03-27T21:16:18.224Z,5.55
2023-03-27T21:21:21.024Z,6.50
2023-03-27T21:26:23.833Z,6.47
2023-03-27T21:31:27.772Z,7.13
2023-03-27T21:36:30.673Z,14.10
2023-03-27T21:41:33.412Z,16.83
2023-03-27T21:46:36.345Z,12.98
2023-03-27T21:51:39.860Z,12.98
2023-03-27T21:56:42.542Z,9.52
2023-03-27T22:01:45.742Z,7.57
2023-03-27T22:06:48.639Z,11.50
2023-03-27T22:11:52.137Z,13.37
2023-03-27T22:16:54.564Z,9.88
2023-03-27T22:27:01.195Z,8.60
2023-03-27T22:32:04.291Z,10.25
2023-03-27T22:37:07.098Z,8.10
2023-03-27T22:42:09.720Z,5.87
2023-03-27T22:47:12.548Z,8.60
2023-03-27T22:52:16.455Z,7.77
2023-03-27T22:57:19.339Z,11.57
2023-03-27T23:02:22.303Z,5.53
2023-03-27T23:07:33.107Z,5.15
2023-03-27T23:12:35.823Z,8.02
2023-03-27T23:17:41.555Z,7.57
2023-03-27T23:22:44.244Z,5.73
2023-03-27T23:27:47.221Z,5.27
2023-03-27T23:32:50.196Z,9.70
2023-03-27T23:37:52.957Z,6.47
2023-03-27T23:42:55.606Z,10.23
2023-03-27T23:47:58.467Z,9.13
2023-03-27T23:53:01.215Z,8.83
2023-03-27T23:58:07.750Z,6.88
